Terminal Aerodrome Forecast
Issued by NWS

Home | Current Version | Previous Version | Text Only | Print | Product List | Glossary On
Versions: 1 2 3 4 5 6 7 8 9 10 11 12 13 14 15 16 17
634
FTUS44 KLZK 051726
TAFADF
TAF
KADF 051726Z 0518/0618 09004KT P6SM VCSH SCT005 BKN015
     FM051900 08008KT 5SM BR VCSH BKN010 OVC025
     FM060000 07004KT 2SM -RA BR BKN007 OVC015
     FM061000 30007KT 1SM -DZ BR OVC005
     FM061500 33005KT 6SM BR OVC015=

USA.gov is the U.S. government's official web portal to all federal, state and local government web resources and services.